sensor_id;sensor_type;location;lat;lon;timestamp;temperature;humidity
17333;DHT22;8784;50.94667800;7.08448400;2023-02-15T00:01:18;5.00;99.90
17333;DHT22;8784;50.94667800;7.08448400;2023-02-15T00:03:47;4.90;99.90
17333;DHT22;8784;50.94667800;7.08448400;2023-02-15T00:06:16;5.00;99.90
17333;DHT22;8784;50.94667800;7.08448400;2023-02-15T00:08:45;5.00;99.90
17333;DHT22;8784;50.94667800;7.08448400;2023-02-15T00:11:13;5.00;99.90
17333;DHT22;8784;50.94667800;7.08448400;2023-02-15T00:13:40;5.00;99.90
17333;DHT22;8784;50.94667800;7.08448400;2023-02-15T00:16:09;4.90;99.90
17333;DHT22;8784;50.94667800;7.08448400;2023-02-15T00:18:36;5.00;99.90
17333;DHT22;8784;50.94667800;7.08448400;2023-02-15T00:21:04;5.00;99.90
17333;DHT22;8784;50.94667800;7.08448400;2023-02-15T00:23:33;5.00;99.90
17333;DHT22;8784;50.94667800;7.08448400;2023-02-15T00:26:05;4.90;99.90
17333;DHT22;8784;50.94667800;7.08448400;2023-02-15T00:28:32;4.90;99.90
17333;DHT22;8784;50.94667800;7.08448400;2023-02-15T00:31:05;4.80;99.90
17333;DHT22;8784;50.94667800;7.08448400;2023-02-15T00:33:32;4.80;99.90
17333;DHT22;8784;50.94667800;7.08448400;2023-02-15T00:36:01;4.80;99.90
17333;DHT22;8784;50.94667800;7.08448400;2023-02-15T00:38:28;4.70;99.90
17333;DHT22;8784;50.94667800;7.08448400;2023-02-15T00:40:58;4.80;99.90
17333;DHT22;8784;50.94667800;7.08448400;2023-02-15T00:43:26;4.70;99.90
17333;DHT22;8784;50.94667800;7.08448400;2023-02-15T00:45:53;4.70;99.90
17333;DHT22;8784;50.94667800;7.08448400;2023-02-15T00:48:21;4.80;99.90
17333;DHT22;8784;50.94667800;7.08448400;2023-02-15T00:50:50;4.70;99.90
17333;DHT22;8784;50.94667800;7.08448400;2023-02-15T00:53:18;4.70;99.90
17333;DHT22;8784;50.94667800;7.08448400;2023-02-15T00:55:44;4.70;99.90
17333;DHT22;8784;50.94667800;7.08448400;2023-02-15T00:58:14;4.70;99.90
17333;DHT22;8784;50.94667800;7.08448400;2023-02-15T01:00:43;4.70;99.90
17333;DHT22;8784;50.94667800;7.08448400;2023-02-15T01:03:10;4.70;99.90
17333;DHT22;8784;50.94667800;7.08448400;2023-02-15T01:05:37;4.60;99.90
17333;DHT22;8784;50.94667800;7.08448400;2023-02-15T01:08:04;4.60;99.90
17333;DHT22;8784;50.94667800;7.08448400;2023-02-15T01:10:31;4.50;99.90
17333;DHT22;8784;50.94667800;7.08448400;2023-02-15T01:12:59;4.50;99.90
17333;DHT22;8784;50.94667800;7.08448400;2023-02-15T01:15:28;4.50;99.90
17333;DHT22;8784;50.94667800;7.08448400;2023-02-15T01:17:55;4.50;99.90
17333;DHT22;8784;50.94667800;7.08448400;2023-02-15T01:20:24;4.50;99.90
17333;DHT22;8784;50.94667800;7.08448400;2023-02-15T01:22:52;4.50;99.90
17333;DHT22;8784;50.94667800;7.08448400;2023-02-15T01:25:20;4.50;99.90
17333;DHT22;8784;50.94667800;7.08448400;2023-02-15T01:27:47;4.50;99.90
17333;DHT22;8784;50.94667800;7.08448400;2023-02-15T01:30:15;4.50;99.90
17333;DHT22;8784;50.94667800;7.08448400;2023-02-15T01:32:44;4.50;99.90
17333;DHT22;8784;50.94667800;7.08448400;2023-02-15T01:35:13;4.50;99.90
17333;DHT22;8784;50.94667800;7.08448400;2023-02-15T01:37:40;4.40;99.90
17333;DHT22;8784;50.94667800;7.08448400;2023-02-15T01:40:11;4.40;99.90
17333;DHT22;8784;50.94667800;7.08448400;2023-02-15T01:42:38;4.40;99.90
17333;DHT22;8784;50.94667800;7.08448400;2023-02-15T01:45:18;4.40;99.90
17333;DHT22;8784;50.94667800;7.08448400;2023-02-15T01:47:51;4.40;99.90
17333;DHT22;8784;50.94667800;7.08448400;2023-02-15T01:50:22;4.40;99.90
17333;DHT22;8784;50.94667800;7.08448400;2023-02-15T01:52:52;4.40;99.90
17333;DHT22;8784;50.94667800;7.08448400;2023-02-15T01:55:24;4.40;99.90
17333;DHT22;8784;50.94667800;7.08448400;2023-02-15T01:57:52;4.40;99.90
17333;DHT22;8784;50.94667800;7.08448400;2023-02-15T02:00:19;4.40;99.90
17333;DHT22;8784;50.94667800;7.08448400;2023-02-15T02:02:50;4.40;99.90
17333;DHT22;8784;50.94667800;7.08448400;2023-02-15T02:05:19;4.40;99.90
17333;DHT22;8784;50.94667800;7.08448400;2023-02-15T02:07:47;4.40;99.90
17333;DHT22;8784;50.94667800;7.08448400;2023-02-15T02:10:19;4.40;99.90
17333;DHT22;8784;50.94667800;7.08448400;2023-02-15T02:12:50;4.30;99.90
17333;DHT22;8784;50.94667800;7.08448400;2023-02-15T02:15:18;4.40;99.90
17333;DHT22;8784;50.94667800;7.08448400;2023-02-15T02:17:58;4.30;99.90
17333;DHT22;8784;50.94667800;7.08448400;2023-02-15T02:20:48;4.30;99.90
17333;DHT22;8784;50.94667800;7.08448400;2023-02-15T02:23:25;4.30;99.90
17333;DHT22;8784;50.94667800;7.08448400;2023-02-15T02:29:09;4.20;99.90
17333;DHT22;8784;50.94667800;7.08448400;2023-02-15T02:31:56;4.20;99.90
17333;DHT22;8784;50.94667800;7.08448400;2023-02-15T02:34:32;4.10;99.90
17333;DHT22;8784;50.94667800;7.08448400;2023-02-15T02:37:10;4.20;99.90
17333;DHT22;8784;50.94667800;7.08448400;2023-02-15T02:39:49;4.20;99.90
17333;DHT22;8784;50.94667800;7.08448400;2023-02-15T02:42:22;4.10;99.90
17333;DHT22;8784;50.94667800;7.08448400;2023-02-15T02:44:56;4.10;99.90
17333;DHT22;8784;50.94667800;7.08448400;2023-02-15T02:47:31;4.10;99.90
17333;DHT22;8784;50.94667800;7.08448400;2023-02-15T02:50:03;4.10;99.90
17333;DHT22;8784;50.94667800;7.08448400;2023-02-15T02:52:38;4.00;99.90
17333;DHT22;8784;50.94667800;7.08448400;2023-02-15T02:55:08;4.00;99.90
17333;DHT22;8784;50.94667800;7.08448400;2023-02-15T02:57:42;4.00;99.90
17333;DHT22;8784;50.94667800;7.08448400;2023-02-15T03:00:11;3.90;99.90
17333;DHT22;8784;50.94667800;7.08448400;2023-02-15T03:02:41;3.90;99.90
17333;DHT22;8784;50.94667800;7.08448400;2023-02-15T03:05:14;3.90;99.90
17333;DHT22;8784;50.94667800;7.08448400;2023-02-15T03:07:43;3.90;99.90
17333;DHT22;8784;50.94667800;7.08448400;2023-02-15T03:10:12;3.90;99.90
17333;DHT22;8784;50.94667800;7.08448400;2023-02-15T03:12:40;3.90;99.90
17333;DHT22;8784;50.94667800;7.08448400;2023-02-15T03:15:11;3.90;99.90
17333;DHT22;8784;50.94667800;7.08448400;2023-02-15T03:17:42;3.90;99.90
17333;DHT22;8784;50.94667800;7.08448400;2023-02-15T03:20:14;3.90;99.90
17333;DHT22;8784;50.94667800;7.08448400;2023-02-15T03:22:46;3.80;99.90
17333;DHT22;8784;50.94667800;7.08448400;2023-02-15T03:25:18;3.80;99.90
17333;DHT22;8784;50.94667800;7.08448400;2023-02-15T03:27:48;3.80;99.90
17333;DHT22;8784;50.94667800;7.08448400;2023-02-15T03:30:18;3.80;99.90
17333;DHT22;8784;50.94667800;7.08448400;2023-02-15T03:32:47;3.80;99.90
17333;DHT22;8784;50.94667800;7.08448400;2023-02-15T03:35:17;3.80;99.90
17333;DHT22;8784;50.94667800;7.08448400;2023-02-15T03:37:48;3.80;99.90
17333;DHT22;8784;50.94667800;7.08448400;2023-02-15T03:40:19;3.90;99.90
17333;DHT22;8784;50.94667800;7.08448400;2023-02-15T03:43:02;3.80;99.90
17333;DHT22;8784;50.94667800;7.08448400;2023-02-15T03:45:36;3.80;99.90
17333;DHT22;8784;50.94667800;7.08448400;2023-02-15T03:48:20;3.70;99.90
17333;DHT22;8784;50.94667800;7.08448400;2023-02-15T03:50:51;3.70;99.90
17333;DHT22;8784;50.94667800;7.08448400;2023-02-15T03:53:33;3.70;99.90
17333;DHT22;8784;50.94667800;7.08448400;2023-02-15T03:56:00;3.70;99.90
17333;DHT22;8784;50.94667800;7.08448400;2023-02-15T03:58:27;3.70;99.90
17333;DHT22;8784;50.94667800;7.08448400;2023-02-15T04:01:13;3.60;99.90
17333;DHT22;8784;50.94667800;7.08448400;2023-02-15T04:04:01;3.70;99.90
17333;DHT22;8784;50.94667800;7.08448400;2023-02-15T04:06:31;3.60;99.90
17333;DHT22;8784;50.94667800;7.08448400;2023-02-15T04:08:58;3.60;99.90
17333;DHT22;8784;50.94667800;7.08448400;2023-02-15T04:11:38;3.70;99.90
17333;DHT22;8784;50.94667800;7.08448400;2023-02-15T04:14:05;3.70;99.90
17333;DHT22;8784;50.94667800;7.08448400;2023-02-15T04:17:05;3.60;99.90
17333;DHT22;8784;50.94667800;7.08448400;2023-02-15T04:19:31;3.70;99.90
17333;DHT22;8784;50.94667800;7.08448400;2023-02-15T04:22:13;3.70;99.90
17333;DHT22;8784;50.94667800;7.08448400;2023-02-15T04:24:54;3.60;99.90
17333;DHT22;8784;50.94667800;7.08448400;2023-02-15T04:27:35;3.70;99.90
17333;DHT22;8784;50.94667800;7.08448400;2023-02-15T04:30:02;3.60;99.90
17333;DHT22;8784;50.94667800;7.08448400;2023-02-15T04:32:29;3.70;99.90
17333;DHT22;8784;50.94667800;7.08448400;2023-02-15T04:34:56;3.60;99.90
17333;DHT22;8784;50.94667800;7.08448400;2023-02-15T04:37:24;3.60;99.90
17333;DHT22;8784;50.94667800;7.08448400;2023-02-15T04:39:51;3.50;99.90
17333;DHT22;8784;50.94667800;7.08448400;2023-02-15T04:42:18;3.60;99.90
17333;DHT22;8784;50.94667800;7.08448400;2023-02-15T04:44:45;3.50;99.90
17333;DHT22;8784;50.94667800;7.08448400;2023-02-15T04:47:12;3.50;99.90
17333;DHT22;8784;50.94667800;7.08448400;2023-02-15T04:49:39;3.50;99.90
17333;DHT22;8784;50.94667800;7.08448400;2023-02-15T04:52:06;3.50;99.90
17333;DHT22;8784;50.94667800;7.08448400;2023-02-15T04:54:34;3.40;99.90
17333;DHT22;8784;50.94667800;7.08448400;2023-02-15T04:57:01;3.50;99.90
17333;DHT22;8784;50.94667800;7.08448400;2023-02-15T04:59:28;3.50;99.90
17333;DHT22;8784;50.94667800;7.08448400;2023-02-15T05:01:55;3.40;99.90
17333;DHT22;8784;50.94667800;7.08448400;2023-02-15T05:04:22;3.40;99.90
17333;DHT22;8784;50.94667800;7.08448400;2023-02-15T05:06:49;3.50;99.90
17333;DHT22;8784;50.94667800;7.08448400;2023-02-15T05:09:16;3.40;99.90
17333;DHT22;8784;50.94667800;7.08448400;2023-02-15T05:11:44;3.50;99.90
17333;DHT22;8784;50.94667800;7.08448400;2023-02-15T05:14:11;3.40;99.90
17333;DHT22;8784;50.94667800;7.08448400;2023-02-15T05:16:38;3.40;99.90
17333;DHT22;8784;50.94667800;7.08448400;2023-02-15T05:19:05;3.40;99.90
17333;DHT22;8784;50.94667800;7.08448400;2023-02-15T05:21:32;3.40;99.90
17333;DHT22;8784;50.94667800;7.08448400;2023-02-15T05:23:59;3.50;99.90
17333;DHT22;8784;50.94667800;7.08448400;2023-02-15T05:26:48;3.40;99.90
17333;DHT22;8784;50.94667800;7.08448400;2023-02-15T05:29:28;3.50;99.90
17333;DHT22;8784;50.94667800;7.08448400;2023-02-15T05:31:55;3.40;99.90
17333;DHT22;8784;50.94667800;7.08448400;2023-02-15T05:34:22;3.40;99.90
17333;DHT22;8784;50.94667800;7.08448400;2023-02-15T05:36:49;3.40;99.90
17333;DHT22;8784;50.94667800;7.08448400;2023-02-15T05:39:16;3.40;99.90
17333;DHT22;8784;50.94667800;7.08448400;2023-02-15T05:41:43;3.40;99.90
17333;DHT22;8784;50.94667800;7.08448400;2023-02-15T05:44:11;3.40;99.90
17333;DHT22;8784;50.94667800;7.08448400;2023-02-15T05:46:38;3.40;99.90
17333;DHT22;8784;50.94667800;7.08448400;2023-02-15T05:49:05;3.40;99.90
17333;DHT22;8784;50.94667800;7.08448400;2023-02-15T05:51:31;3.40;99.90
17333;DHT22;8784;50.94667800;7.08448400;2023-02-15T05:53:59;3.40;99.90
17333;DHT22;8784;50.94667800;7.08448400;2023-02-15T05:56:26;3.40;99.90
17333;DHT22;8784;50.94667800;7.08448400;2023-02-15T05:58:53;3.30;99.90
17333;DHT22;8784;50.94667800;7.08448400;2023-02-15T06:01:21;3.30;99.90
17333;DHT22;8784;50.94667800;7.08448400;2023-02-15T06:03:49;3.30;99.90
17333;DHT22;8784;50.94667800;7.08448400;2023-02-15T06:06:17;3.30;99.90
17333;DHT22;8784;50.94667800;7.08448400;2023-02-15T06:08:44;3.20;99.90
17333;DHT22;8784;50.94667800;7.08448400;2023-02-15T06:11:11;3.20;99.90
17333;DHT22;8784;50.94667800;7.08448400;2023-02-15T06:13:38;3.20;99.90
17333;DHT22;8784;50.94667800;7.08448400;2023-02-15T06:16:05;3.20;99.90
17333;DHT22;8784;50.94667800;7.08448400;2023-02-15T06:18:34;3.10;99.90
17333;DHT22;8784;50.94667800;7.08448400;2023-02-15T06:21:02;3.10;99.90
17333;DHT22;8784;50.94667800;7.08448400;2023-02-15T06:23:29;3.10;99.90
17333;DHT22;8784;50.94667800;7.08448400;2023-02-15T06:25:56;3.20;99.90
17333;DHT22;8784;50.94667800;7.08448400;2023-02-15T06:28:23;3.10;99.90
17333;DHT22;8784;50.94667800;7.08448400;2023-02-15T06:30:51;3.10;99.90
17333;DHT22;8784;50.94667800;7.08448400;2023-02-15T06:33:17;3.20;99.90
17333;DHT22;8784;50.94667800;7.08448400;2023-02-15T06:35:46;3.20;99.90
17333;DHT22;8784;50.94667800;7.08448400;2023-02-15T06:38:13;3.10;99.90
17333;DHT22;8784;50.94667800;7.08448400;2023-02-15T06:40:41;3.10;99.90
17333;DHT22;8784;50.94667800;7.08448400;2023-02-15T06:43:08;3.00;99.90
17333;DHT22;8784;50.94667800;7.08448400;2023-02-15T06:45:34;3.00;99.90
17333;DHT22;8784;50.94667800;7.08448400;2023-02-15T06:48:02;3.00;99.90
17333;DHT22;8784;50.94667800;7.08448400;2023-02-15T06:50:29;3.00;99.90
17333;DHT22;8784;50.94667800;7.08448400;2023-02-15T06:53:00;3.10;99.90
17333;DHT22;8784;50.94667800;7.08448400;2023-02-15T06:55:27;3.00;99.90
17333;DHT22;8784;50.94667800;7.08448400;2023-02-15T06:57:54;3.00;99.90
17333;DHT22;8784;50.94667800;7.08448400;2023-02-15T07:00:21;3.00;99.90
17333;DHT22;8784;50.94667800;7.08448400;2023-02-15T07:02:53;3.00;99.90
17333;DHT22;8784;50.94667800;7.08448400;2023-02-15T07:05:22;3.00;99.90
17333;DHT22;8784;50.94667800;7.08448400;2023-02-15T07:07:49;3.00;99.90
17333;DHT22;8784;50.94667800;7.08448400;2023-02-15T07:10:17;3.10;99.90
17333;DHT22;8784;50.94667800;7.08448400;2023-02-15T07:12:44;3.10;99.90
17333;DHT22;8784;50.94667800;7.08448400;2023-02-15T07:15:12;3.20;99.90
17333;DHT22;8784;50.94667800;7.08448400;2023-02-15T07:17:41;3.20;99.90
17333;DHT22;8784;50.94667800;7.08448400;2023-02-15T07:20:10;3.20;99.90
17333;DHT22;8784;50.94667800;7.08448400;2023-02-15T07:22:37;3.30;99.90
17333;DHT22;8784;50.94667800;7.08448400;2023-02-15T07:25:06;3.20;99.90
17333;DHT22;8784;50.94667800;7.08448400;2023-02-15T07:27:35;3.30;99.90
17333;DHT22;8784;50.94667800;7.08448400;2023-02-15T07:30:03;3.40;99.90
17333;DHT22;8784;50.94667800;7.08448400;2023-02-15T07:32:30;3.40;99.90
17333;DHT22;8784;50.94667800;7.08448400;2023-02-15T07:35:11;3.40;99.90
17333;DHT22;8784;50.94667800;7.08448400;2023-02-15T07:37:38;3.50;99.90
17333;DHT22;8784;50.94667800;7.08448400;2023-02-15T07:40:06;3.60;99.90
17333;DHT22;8784;50.94667800;7.08448400;2023-02-15T07:42:35;3.70;99.90
17333;DHT22;8784;50.94667800;7.08448400;2023-02-15T07:45:02;3.70;99.90
17333;DHT22;8784;50.94667800;7.08448400;2023-02-15T07:47:29;3.80;99.90
17333;DHT22;8784;50.94667800;7.08448400;2023-02-15T07:49:56;3.90;99.90
17333;DHT22;8784;50.94667800;7.08448400;2023-02-15T07:52:23;3.90;99.90
17333;DHT22;8784;50.94667800;7.08448400;2023-02-15T07:54:50;3.90;99.90
17333;DHT22;8784;50.94667800;7.08448400;2023-02-15T07:57:17;4.00;99.90
17333;DHT22;8784;50.94667800;7.08448400;2023-02-15T07:59:45;4.00;99.90
17333;DHT22;8784;50.94667800;7.08448400;2023-02-15T08:02:12;4.10;99.90
17333;DHT22;8784;50.94667800;7.08448400;2023-02-15T08:04:39;4.10;99.90
17333;DHT22;8784;50.94667800;7.08448400;2023-02-15T08:07:06;4.20;99.90
17333;DHT22;8784;50.94667800;7.08448400;2023-02-15T08:09:34;4.30;99.90
17333;DHT22;8784;50.94667800;7.08448400;2023-02-15T08:12:00;4.40;99.90
17333;DHT22;8784;50.94667800;7.08448400;2023-02-15T08:14:27;4.50;99.90
17333;DHT22;8784;50.94667800;7.08448400;2023-02-15T08:16:59;4.60;99.90
17333;DHT22;8784;50.94667800;7.08448400;2023-02-15T08:19:29;4.70;99.90
17333;DHT22;8784;50.94667800;7.08448400;2023-02-15T08:21:58;4.80;99.90
17333;DHT22;8784;50.94667800;7.08448400;2023-02-15T08:24:28;4.90;99.90
17333;DHT22;8784;50.94667800;7.08448400;2023-02-15T08:26:56;5.00;99.90
17333;DHT22;8784;50.94667800;7.08448400;2023-02-15T08:29:25;5.10;99.90
17333;DHT22;8784;50.94667800;7.08448400;2023-02-15T08:31:54;5.20;99.90
17333;DHT22;8784;50.94667800;7.08448400;2023-02-15T08:34:25;5.20;99.90
17333;DHT22;8784;50.94667800;7.08448400;2023-02-15T08:36:52;5.30;99.90
17333;DHT22;8784;50.94667800;7.08448400;2023-02-15T08:39:19;5.40;99.90
17333;DHT22;8784;50.94667800;7.08448400;2023-02-15T08:41:47;5.50;99.90
17333;DHT22;8784;50.94667800;7.08448400;2023-02-15T08:44:15;5.60;99.90
17333;DHT22;8784;50.94667800;7.08448400;2023-02-15T08:46:44;5.60;99.90
17333;DHT22;8784;50.94667800;7.08448400;2023-02-15T08:49:14;5.60;99.90
17333;DHT22;8784;50.94667800;7.08448400;2023-02-15T08:51:43;5.80;99.90
17333;DHT22;8784;50.94667800;7.08448400;2023-02-15T08:54:13;5.80;99.90
17333;DHT22;8784;50.94667800;7.08448400;2023-02-15T08:56:41;5.90;99.90
17333;DHT22;8784;50.94667800;7.08448400;2023-02-15T08:59:12;6.00;99.90
17333;DHT22;8784;50.94667800;7.08448400;2023-02-15T09:01:39;6.10;99.90
17333;DHT22;8784;50.94667800;7.08448400;2023-02-15T09:04:08;6.20;99.90
17333;DHT22;8784;50.94667800;7.08448400;2023-02-15T09:06:35;6.30;99.90
17333;DHT22;8784;50.94667800;7.08448400;2023-02-15T09:09:04;6.40;99.90
17333;DHT22;8784;50.94667800;7.08448400;2023-02-15T09:11:34;6.50;99.90
17333;DHT22;8784;50.94667800;7.08448400;2023-02-15T09:14:03;6.60;99.90
17333;DHT22;8784;50.94667800;7.08448400;2023-02-15T09:16:32;6.70;99.90
17333;DHT22;8784;50.94667800;7.08448400;2023-02-15T09:19:01;6.90;99.90
17333;DHT22;8784;50.94667800;7.08448400;2023-02-15T09:21:30;7.00;99.90
17333;DHT22;8784;50.94667800;7.08448400;2023-02-15T09:23:58;7.10;99.90
17333;DHT22;8784;50.94667800;7.08448400;2023-02-15T09:26:29;7.20;99.90
17333;DHT22;8784;50.94667800;7.08448400;2023-02-15T09:28:58;7.40;99.90
17333;DHT22;8784;50.94667800;7.08448400;2023-02-15T09:31:28;7.60;99.90
17333;DHT22;8784;50.94667800;7.08448400;2023-02-15T09:33:55;7.80;99.90
17333;DHT22;8784;50.94667800;7.08448400;2023-02-15T09:36:24;7.80;99.90
17333;DHT22;8784;50.94667800;7.08448400;2023-02-15T09:38:55;8.00;99.90
17333;DHT22;8784;50.94667800;7.08448400;2023-02-15T09:41:53;8.10;99.90
17333;DHT22;8784;50.94667800;7.08448400;2023-02-15T09:44:30;8.30;99.90
17333;DHT22;8784;50.94667800;7.08448400;2023-02-15T09:47:13;8.50;99.90
17333;DHT22;8784;50.94667800;7.08448400;2023-02-15T09:49:52;8.60;99.90
17333;DHT22;8784;50.94667800;7.08448400;2023-02-15T09:52:34;8.80;99.90
17333;DHT22;8784;50.94667800;7.08448400;2023-02-15T09:55:19;9.00;99.90
17333;DHT22;8784;50.94667800;7.08448400;2023-02-15T09:57:56;9.00;99.60
17333;DHT22;8784;50.94667800;7.08448400;2023-02-15T10:00:30;9.20;99.50
17333;DHT22;8784;50.94667800;7.08448400;2023-02-15T10:03:29;9.30;99.20
17333;DHT22;8784;50.94667800;7.08448400;2023-02-15T10:09:05;9.80;98.70
17333;DHT22;8784;50.94667800;7.08448400;2023-02-15T10:11:46;10.10;98.00
17333;DHT22;8784;50.94667800;7.08448400;2023-02-15T10:14:44;10.20;97.30
17333;DHT22;8784;50.94667800;7.08448400;2023-02-15T10:17:22;10.50;96.90
17333;DHT22;8784;50.94667800;7.08448400;2023-02-15T10:20:02;10.70;96.30
17333;DHT22;8784;50.94667800;7.08448400;2023-02-15T10:22:45;10.80;96.00
17333;DHT22;8784;50.94667800;7.08448400;2023-02-15T10:25:25;11.00;95.80
17333;DHT22;8784;50.94667800;7.08448400;2023-02-15T10:27:59;11.10;95.50
17333;DHT22;8784;50.94667800;7.08448400;2023-02-15T10:30:41;11.30;94.80
17333;DHT22;8784;50.94667800;7.08448400;2023-02-15T10:33:18;11.40;94.10
17333;DHT22;8784;50.94667800;7.08448400;2023-02-15T10:36:00;11.50;94.00
17333;DHT22;8784;50.94667800;7.08448400;2023-02-15T10:38:34;11.60;93.70
17333;DHT22;8784;50.94667800;7.08448400;2023-02-15T10:41:21;11.70;93.80
17333;DHT22;8784;50.94667800;7.08448400;2023-02-15T10:44:02;11.80;93.50
17333;DHT22;8784;50.94667800;7.08448400;2023-02-15T10:46:48;11.90;93.40
17333;DHT22;8784;50.94667800;7.08448400;2023-02-15T10:49:26;12.00;93.00
17333;DHT22;8784;50.94667800;7.08448400;2023-02-15T10:52:09;12.10;92.70
17333;DHT22;8784;50.94667800;7.08448400;2023-02-15T10:54:41;11.90;91.90
17333;DHT22;8784;50.94667800;7.08448400;2023-02-15T10:57:15;11.80;92.30
17333;DHT22;8784;50.94667800;7.08448400;2023-02-15T10:59:57;11.80;92.50
17333;DHT22;8784;50.94667800;7.08448400;2023-02-15T11:02:39;11.80;91.30
17333;DHT22;8784;50.94667800;7.08448400;2023-02-15T11:05:22;11.60;91.40
17333;DHT22;8784;50.94667800;7.08448400;2023-02-15T11:07:51;11.60;91.70
17333;DHT22;8784;50.94667800;7.08448400;2023-02-15T11:10:27;11.50;91.80
17333;DHT22;8784;50.94667800;7.08448400;2023-02-15T11:12:57;11.50;91.80
17333;DHT22;8784;50.94667800;7.08448400;2023-02-15T11:15:29;11.50;91.80
17333;DHT22;8784;50.94667800;7.08448400;2023-02-15T11:18:02;11.50;91.70
17333;DHT22;8784;50.94667800;7.08448400;2023-02-15T11:20:35;11.50;91.50
17333;DHT22;8784;50.94667800;7.08448400;2023-02-15T11:23:13;11.40;91.40
17333;DHT22;8784;50.94667800;7.08448400;2023-02-15T11:25:44;11.50;91.30
17333;DHT22;8784;50.94667800;7.08448400;2023-02-15T11:28:18;11.60;91.40
17333;DHT22;8784;50.94667800;7.08448400;2023-02-15T11:30:50;11.60;91.20
17333;DHT22;8784;50.94667800;7.08448400;2023-02-15T11:33:23;11.60;91.00
17333;DHT22;8784;50.94667800;7.08448400;2023-02-15T11:35:55;11.60;91.00
17333;DHT22;8784;50.94667800;7.08448400;2023-02-15T11:38:26;11.70;91.10
17333;DHT22;8784;50.94667800;7.08448400;2023-02-15T11:40:57;11.80;91.20
17333;DHT22;8784;50.94667800;7.08448400;2023-02-15T11:43:29;11.90;91.00
17333;DHT22;8784;50.94667800;7.08448400;2023-02-15T11:45:57;12.00;90.60
17333;DHT22;8784;50.94667800;7.08448400;2023-02-15T11:48:26;12.00;90.80
17333;DHT22;8784;50.94667800;7.08448400;2023-02-15T11:50:56;12.00;90.30
17333;DHT22;8784;50.94667800;7.08448400;2023-02-15T11:53:23;12.10;90.60
17333;DHT22;8784;50.94667800;7.08448400;2023-02-15T11:55:54;12.20;90.20
17333;DHT22;8784;50.94667800;7.08448400;2023-02-15T11:58:28;12.20;90.20
17333;DHT22;8784;50.94667800;7.08448400;2023-02-15T12:01:00;12.40;90.30
17333;DHT22;8784;50.94667800;7.08448400;2023-02-15T12:03:44;12.40;90.10
17333;DHT22;8784;50.94667800;7.08448400;2023-02-15T12:06:22;12.60;89.40
17333;DHT22;8784;50.94667800;7.08448400;2023-02-15T12:08:56;12.60;90.00
17333;DHT22;8784;50.94667800;7.08448400;2023-02-15T12:11:30;12.70;88.80
17333;DHT22;8784;50.94667800;7.08448400;2023-02-15T12:13:59;12.70;88.70
17333;DHT22;8784;50.94667800;7.08448400;2023-02-15T12:16:27;12.80;88.60
17333;DHT22;8784;50.94667800;7.08448400;2023-02-15T12:18:59;12.80;88.60
17333;DHT22;8784;50.94667800;7.08448400;2023-02-15T12:21:29;12.90;88.30
17333;DHT22;8784;50.94667800;7.08448400;2023-02-15T12:24:00;13.00;88.20
17333;DHT22;8784;50.94667800;7.08448400;2023-02-15T12:26:29;13.00;87.30
17333;DHT22;8784;50.94667800;7.08448400;2023-02-15T12:28:58;13.00;86.70
17333;DHT22;8784;50.94667800;7.08448400;2023-02-15T12:31:32;12.90;85.50
17333;DHT22;8784;50.94667800;7.08448400;2023-02-15T12:34:09;12.80;85.90
17333;DHT22;8784;50.94667800;7.08448400;2023-02-15T12:36:42;12.90;86.20
17333;DHT22;8784;50.94667800;7.08448400;2023-02-15T12:39:19;12.90;86.10
17333;DHT22;8784;50.94667800;7.08448400;2023-02-15T12:41:56;13.00;86.10
17333;DHT22;8784;50.94667800;7.08448400;2023-02-15T12:44:25;13.10;86.10
17333;DHT22;8784;50.94667800;7.08448400;2023-02-15T12:46:57;13.10;85.40
17333;DHT22;8784;50.94667800;7.08448400;2023-02-15T12:49:27;13.20;85.60
17333;DHT22;8784;50.94667800;7.08448400;2023-02-15T12:51:55;13.20;85.10
17333;DHT22;8784;50.94667800;7.08448400;2023-02-15T12:54:32;13.20;84.40
17333;DHT22;8784;50.94667800;7.08448400;2023-02-15T12:57:14;13.20;84.80
17333;DHT22;8784;50.94667800;7.08448400;2023-02-15T12:59:49;13.30;85.00
17333;DHT22;8784;50.94667800;7.08448400;2023-02-15T13:02:22;13.40;85.10
17333;DHT22;8784;50.94667800;7.08448400;2023-02-15T13:04:51;13.50;84.80
17333;DHT22;8784;50.94667800;7.08448400;2023-02-15T13:07:19;13.60;84.40
17333;DHT22;8784;50.94667800;7.08448400;2023-02-15T13:09:47;13.60;83.70
17333;DHT22;8784;50.94667800;7.08448400;2023-02-15T13:12:20;13.60;83.80
17333;DHT22;8784;50.94667800;7.08448400;2023-02-15T13:14:49;13.60;83.00
17333;DHT22;8784;50.94667800;7.08448400;2023-02-15T13:17:19;13.60;83.30
17333;DHT22;8784;50.94667800;7.08448400;2023-02-15T13:19:52;13.60;82.90
17333;DHT22;8784;50.94667800;7.08448400;2023-02-15T13:22:21;13.50;82.60
17333;DHT22;8784;50.94667800;7.08448400;2023-02-15T13:24:53;13.40;82.30
17333;DHT22;8784;50.94667800;7.08448400;2023-02-15T13:27:23;13.50;82.80
17333;DHT22;8784;50.94667800;7.08448400;2023-02-15T13:29:53;13.60;83.00
17333;DHT22;8784;50.94667800;7.08448400;2023-02-15T13:32:27;13.60;82.90
17333;DHT22;8784;50.94667800;7.08448400;2023-02-15T13:34:57;13.70;83.00
17333;DHT22;8784;50.94667800;7.08448400;2023-02-15T13:37:40;13.80;82.80
17333;DHT22;8784;50.94667800;7.08448400;2023-02-15T13:40:14;13.80;82.80
17333;DHT22;8784;50.94667800;7.08448400;2023-02-15T13:42:47;13.90;82.50
17333;DHT22;8784;50.94667800;7.08448400;2023-02-15T13:45:30;13.90;82.30
17333;DHT22;8784;50.94667800;7.08448400;2023-02-15T13:48:03;14.00;81.90
17333;DHT22;8784;50.94667800;7.08448400;2023-02-15T13:50:51;14.10;81.80
17333;DHT22;8784;50.94667800;7.08448400;2023-02-15T13:53:41;14.10;81.10
17333;DHT22;8784;50.94667800;7.08448400;2023-02-15T13:56:17;14.00;81.20
17333;DHT22;8784;50.94667800;7.08448400;2023-02-15T14:01:54;14.00;81.10
17333;DHT22;8784;50.94667800;7.08448400;2023-02-15T14:04:41;14.00;80.70
17333;DHT22;8784;50.94667800;7.08448400;2023-02-15T14:07:35;14.00;80.50
17333;DHT22;8784;50.94667800;7.08448400;2023-02-15T14:10:21;14.00;80.90
17333;DHT22;8784;50.94667800;7.08448400;2023-02-15T14:13:07;14.00;81.60
17333;DHT22;8784;50.94667800;7.08448400;2023-02-15T14:15:41;14.00;80.60